createdAt,value
2018-07-30T00:01:32.108Z,6.47
2018-07-30T00:04:00.707Z,5.87
2018-07-30T00:06:29.180Z,6.27
2018-07-30T00:08:57.668Z,7.57
2018-07-30T00:11:26.157Z,8.07
2018-07-30T00:13:54.633Z,6.00
2018-07-30T00:16:23.107Z,5.53
2018-07-30T00:18:51.598Z,6.30
2018-07-30T00:21:20.115Z,5.50
2018-07-30T00:23:48.639Z,6.93
2018-07-30T00:26:17.089Z,7.83
2018-07-30T00:28:45.546Z,5.87
2018-07-30T00:31:14.020Z,6.77
2018-07-30T00:33:42.513Z,5.53
2018-07-30T00:36:10.996Z,5.17
2018-07-30T00:38:39.472Z,4.90
2018-07-30T00:41:07.944Z,5.40
2018-07-30T00:43:36.467Z,5.53
2018-07-30T00:46:05.076Z,4.73
2018-07-30T00:48:33.529Z,4.00
2018-07-30T00:51:01.990Z,5.20
2018-07-30T00:53:30.472Z,4.40
2018-07-30T00:55:59.620Z,5.03
2018-07-30T00:58:28.092Z,7.67
2018-07-30T01:00:56.574Z,5.57
2018-07-30T01:03:25.061Z,4.17
2018-07-30T01:05:53.852Z,3.93
2018-07-30T01:08:22.328Z,4.67
2018-07-30T01:10:50.822Z,4.97
2018-07-30T01:13:19.287Z,3.53
2018-07-30T01:15:47.747Z,3.93
2018-07-30T01:18:16.322Z,3.83
2018-07-30T01:20:44.788Z,3.30
2018-07-30T01:23:13.264Z,4.80
2018-07-30T01:25:42.238Z,3.30
2018-07-30T01:28:10.779Z,4.40
2018-07-30T01:30:39.283Z,5.30
2018-07-30T01:33:07.751Z,3.53
2018-07-30T01:35:36.247Z,3.83
2018-07-30T01:38:04.752Z,3.53
2018-07-30T01:40:33.225Z,4.07
2018-07-30T01:43:01.703Z,4.23
2018-07-30T01:45:30.182Z,5.93
2018-07-30T01:47:58.664Z,5.60
2018-07-30T01:50:27.127Z,3.27
2018-07-30T01:52:55.581Z,5.23
2018-07-30T01:55:24.145Z,2.70
2018-07-30T01:57:52.628Z,4.00
2018-07-30T02:00:21.137Z,4.37
2018-07-30T02:02:49.611Z,5.60
2018-07-30T02:05:18.100Z,3.67
2018-07-30T02:07:46.584Z,3.73
2018-07-30T02:10:15.060Z,4.63
2018-07-30T02:12:43.599Z,3.47
2018-07-30T02:15:15.174Z,3.20
2018-07-30T02:17:43.628Z,4.03
2018-07-30T02:20:12.164Z,3.67
2018-07-30T02:22:40.696Z,4.60
2018-07-30T02:25:09.737Z,3.03
2018-07-30T02:27:38.188Z,3.23
2018-07-30T02:30:07.961Z,2.90
2018-07-30T02:32:37.213Z,3.33
2018-07-30T02:35:06.612Z,3.63
2018-07-30T02:37:35.205Z,2.90
2018-07-30T02:40:03.777Z,7.10
2018-07-30T02:42:32.312Z,5.57
2018-07-30T02:45:00.825Z,4.37
2018-07-30T02:47:29.491Z,5.20
2018-07-30T02:49:57.978Z,4.30
2018-07-30T02:52:26.452Z,4.83
2018-07-30T02:54:54.937Z,4.20
2018-07-30T02:57:23.421Z,4.80
2018-07-30T02:59:51.970Z,5.90
2018-07-30T03:02:20.557Z,3.27
2018-07-30T03:04:49.808Z,2.80
2018-07-30T03:07:18.891Z,4.03
2018-07-30T03:09:47.901Z,5.27
2018-07-30T03:12:16.923Z,4.00
2018-07-30T03:14:46.200Z,3.43
2018-07-30T03:17:14.709Z,3.10
2018-07-30T03:19:43.177Z,3.90
2018-07-30T03:22:11.667Z,3.90
2018-07-30T03:24:40.915Z,5.17
2018-07-30T03:27:09.386Z,4.70
2018-07-30T03:29:37.864Z,4.43
2018-07-30T03:32:06.413Z,6.40
2018-07-30T03:34:34.879Z,9.30
2018-07-30T03:37:03.432Z,6.13
2018-07-30T03:39:31.953Z,7.17
2018-07-30T03:42:00.455Z,6.67
2018-07-30T03:44:28.945Z,5.83
2018-07-30T03:46:58.044Z,7.57
2018-07-30T03:49:27.051Z,5.93
2018-07-30T03:51:56.130Z,7.33
2018-07-30T03:54:25.359Z,5.47
2018-07-30T03:56:54.635Z,6.43
2018-07-30T03:59:23.188Z,5.60
2018-07-30T04:01:52.437Z,8.47
2018-07-30T04:04:21.004Z,9.07
2018-07-30T04:06:49.478Z,6.73
2018-07-30T04:09:17.983Z,5.57
2018-07-30T04:11:46.448Z,6.27
2018-07-30T04:14:14.917Z,7.47
2018-07-30T04:16:47.548Z,7.43
2018-07-30T04:19:16.409Z,7.67
2018-07-30T04:21:44.860Z,6.70
2018-07-30T04:24:13.348Z,6.50
2018-07-30T04:26:42.204Z,9.57
2018-07-30T04:29:10.663Z,6.87
2018-07-30T04:31:39.180Z,5.20
2018-07-30T04:34:07.680Z,10.57
2018-07-30T04:36:36.648Z,7.30
2018-07-30T04:39:07.670Z,7.70
2018-07-30T04:41:36.242Z,5.10
2018-07-30T04:44:04.839Z,7.10
2018-07-30T04:46:33.300Z,6.60
2018-07-30T04:49:01.813Z,7.20
2018-07-30T04:51:30.260Z,7.10
2018-07-30T04:53:58.780Z,8.23
2018-07-30T04:56:27.721Z,5.27
2018-07-30T04:58:56.297Z,7.97
2018-07-30T05:01:24.826Z,7.63
2018-07-30T05:03:53.385Z,6.90
2018-07-30T05:06:22.404Z,7.07
2018-07-30T05:08:51.487Z,10.07
2018-07-30T05:11:20.752Z,6.50
2018-07-30T05:13:50.020Z,8.07
2018-07-30T05:16:18.532Z,5.43
2018-07-30T05:18:47.188Z,4.77
2018-07-30T05:21:15.667Z,6.17
2018-07-30T05:23:44.118Z,5.47
2018-07-30T05:26:12.808Z,6.87
2018-07-30T05:28:41.274Z,7.63
2018-07-30T05:31:10.391Z,4.70
2018-07-30T05:33:39.617Z,6.53
2018-07-30T05:36:08.441Z,5.70
2018-07-30T05:38:37.700Z,4.67
2018-07-30T05:41:06.920Z,4.17
2018-07-30T05:43:35.747Z,4.13
2018-07-30T05:46:05.579Z,4.27
2018-07-30T05:48:34.796Z,5.53
2018-07-30T05:51:03.788Z,5.80
2018-07-30T05:53:33.059Z,3.23
2018-07-30T05:56:02.283Z,14.27
2018-07-30T05:58:31.177Z,3.30
2018-07-30T06:01:00.330Z,3.57
2018-07-30T06:03:29.563Z,5.43
2018-07-30T06:05:58.527Z,5.37
2018-07-30T06:08:27.815Z,5.10
2018-07-30T06:10:57.026Z,5.07
2018-07-30T06:13:26.269Z,5.93
2018-07-30T06:15:55.648Z,9.00
2018-07-30T06:18:24.523Z,7.43
2018-07-30T06:20:53.138Z,10.60
2018-07-30T06:23:21.628Z,4.20
2018-07-30T06:25:50.104Z,10.27
2018-07-30T06:28:18.601Z,9.13
2018-07-30T06:30:47.720Z,3.10
2018-07-30T06:33:16.726Z,7.70
2018-07-30T06:35:45.904Z,9.00
2018-07-30T06:38:15.183Z,4.57
2018-07-30T06:40:44.412Z,7.73
2018-07-30T06:43:13.639Z,6.07
2018-07-30T06:45:42.868Z,7.30
2018-07-30T06:48:12.075Z,6.87
2018-07-30T06:50:41.619Z,7.00
2018-07-30T06:53:10.727Z,7.17
2018-07-30T06:55:39.948Z,7.30
2018-07-30T06:58:08.995Z,8.57
2018-07-30T07:00:38.056Z,8.00
2018-07-30T07:03:07.076Z,6.90
2018-07-30T07:05:36.062Z,3.60
2018-07-30T07:08:05.291Z,6.63
2018-07-30T07:10:34.524Z,7.33
2018-07-30T07:13:03.767Z,9.70
2018-07-30T07:15:32.695Z,8.40
2018-07-30T07:18:01.583Z,4.63
2018-07-30T07:20:30.956Z,7.23
2018-07-30T07:23:00.382Z,3.57
2018-07-30T07:25:29.469Z,4.70
2018-07-30T07:27:58.529Z,6.87
2018-07-30T07:30:27.735Z,4.83
2018-07-30T07:32:56.964Z,5.87
2018-07-30T07:35:25.619Z,3.40
2018-07-30T07:37:54.626Z,4.90
2018-07-30T07:40:23.864Z,7.33
2018-07-30T07:42:53.098Z,10.33
2018-07-30T07:45:22.295Z,6.33
2018-07-30T07:47:51.353Z,11.63
2018-07-30T07:50:20.544Z,5.53
2018-07-30T07:52:49.423Z,4.07
2018-07-30T07:55:18.655Z,4.47
2018-07-30T07:57:47.837Z,5.43
2018-07-30T08:00:17.060Z,4.00
2018-07-30T08:02:46.313Z,8.50
2018-07-30T08:05:15.337Z,4.90
2018-07-30T08:07:44.569Z,6.63
2018-07-30T08:10:13.790Z,4.07
2018-07-30T08:12:42.825Z,4.67
2018-07-30T08:15:11.844Z,7.63
2018-07-30T08:17:40.379Z,6.40
2018-07-30T08:20:09.542Z,4.60
2018-07-30T08:22:38.506Z,5.73
2018-07-30T08:25:09.048Z,5.50
2018-07-30T08:27:38.880Z,4.53
2018-07-30T08:30:08.231Z,4.67
2018-07-30T08:32:37.748Z,3.53
2018-07-30T08:35:07.008Z,4.10
2018-07-30T08:37:36.246Z,3.93
2018-07-30T08:40:05.452Z,3.20
2018-07-30T08:42:34.499Z,3.30
2018-07-30T08:45:03.733Z,3.20
2018-07-30T08:47:32.957Z,3.97
2018-07-30T08:50:02.197Z,4.50
2018-07-30T08:52:31.219Z,4.73
2018-07-30T08:55:00.445Z,3.27
2018-07-30T08:57:29.738Z,5.13
2018-07-30T08:59:58.940Z,6.67
2018-07-30T09:02:28.216Z,3.03
2018-07-30T09:04:57.103Z,4.07
2018-07-30T09:07:26.319Z,4.40
2018-07-30T09:09:55.431Z,3.83
2018-07-30T09:12:24.697Z,6.03
2018-07-30T09:14:54.010Z,2.97
2018-07-30T09:17:23.269Z,3.57
2018-07-30T09:19:52.520Z,5.63
2018-07-30T09:22:21.762Z,9.90
2018-07-30T09:24:51.029Z,6.07
2018-07-30T09:27:20.003Z,7.73
2018-07-30T09:29:49.104Z,3.97
2018-07-30T09:32:18.082Z,5.97
2018-07-30T09:34:47.321Z,8.03
2018-07-30T09:37:16.485Z,5.27
2018-07-30T09:39:45.479Z,5.97
2018-07-30T09:42:14.765Z,4.67
2018-07-30T09:44:43.771Z,5.87
2018-07-30T09:47:12.964Z,9.50
2018-07-30T09:49:42.004Z,10.93
2018-07-30T09:52:11.268Z,11.53
2018-07-30T09:54:40.483Z,10.37
2018-07-30T09:57:09.649Z,9.33
2018-07-30T09:59:38.866Z,24.60
2018-07-30T10:02:07.981Z,5.13
2018-07-30T10:04:37.110Z,5.67
2018-07-30T10:07:06.414Z,5.87
2018-07-30T10:09:35.426Z,10.23
2018-07-30T10:12:04.686Z,11.43
2018-07-30T10:14:33.885Z,20.37
2018-07-30T10:17:03.122Z,73.93
2018-07-30T10:19:32.110Z,53.63
2018-07-30T10:22:01.388Z,41.87
2018-07-30T10:24:30.592Z,7.13
2018-07-30T10:26:59.859Z,60.40
2018-07-30T10:29:29.050Z,8.43
2018-07-30T10:31:58.096Z,5.57
2018-07-30T10:34:27.329Z,7.30
2018-07-30T10:36:56.670Z,6.90
2018-07-30T10:39:25.771Z,5.67
2018-07-30T10:41:55.057Z,5.83
2018-07-30T10:44:24.239Z,12.33
2018-07-30T10:46:53.433Z,5.90
2018-07-30T10:49:22.626Z,9.17
2018-07-30T10:51:51.879Z,31.47
2018-07-30T10:54:21.100Z,4.70
2018-07-30T10:56:50.355Z,9.80
2018-07-30T10:59:19.368Z,8.70
2018-07-30T11:01:48.582Z,7.10
2018-07-30T11:04:17.781Z,6.17
2018-07-30T11:06:46.861Z,4.37
2018-07-30T11:09:16.128Z,8.23
2018-07-30T11:11:45.296Z,7.13
2018-07-30T11:14:14.528Z,5.90
2018-07-30T11:16:43.739Z,8.23
2018-07-30T11:19:12.817Z,5.57
2018-07-30T11:21:41.918Z,12.20
2018-07-30T11:24:11.043Z,5.87
2018-07-30T11:26:40.053Z,6.73
2018-07-30T11:29:09.291Z,5.97
2018-07-30T11:31:38.284Z,6.37
2018-07-30T11:34:07.317Z,11.77
2018-07-30T11:36:36.376Z,4.77
2018-07-30T11:39:07.959Z,5.30
2018-07-30T11:41:37.228Z,5.33
2018-07-30T11:44:06.215Z,5.67
2018-07-30T11:46:35.469Z,5.90
2018-07-30T11:49:04.688Z,5.60
2018-07-30T11:51:33.814Z,7.57
2018-07-30T11:54:02.933Z,7.93
2018-07-30T11:56:32.149Z,4.13
2018-07-30T11:59:01.377Z,5.33
2018-07-30T12:01:30.444Z,7.23
2018-07-30T12:03:59.539Z,3.73
2018-07-30T12:06:28.626Z,4.53
2018-07-30T12:08:57.106Z,5.10
2018-07-30T12:11:26.338Z,3.57
2018-07-30T12:13:56.021Z,4.33
2018-07-30T12:16:25.156Z,7.10
2018-07-30T12:18:54.460Z,8.87
2018-07-30T12:21:23.632Z,7.50
2018-07-30T12:23:52.857Z,9.70
2018-07-30T12:26:22.130Z,7.57
2018-07-30T12:28:51.607Z,4.77
2018-07-30T12:31:20.741Z,6.13
2018-07-30T12:33:49.717Z,5.47
2018-07-30T12:36:19.079Z,5.30
2018-07-30T12:38:47.983Z,4.97
2018-07-30T12:41:17.246Z,6.80
2018-07-30T12:43:46.228Z,4.43
2018-07-30T12:46:15.536Z,5.17
2018-07-30T12:48:44.722Z,7.10
2018-07-30T12:51:13.936Z,4.37
2018-07-30T12:53:42.955Z,6.77
2018-07-30T12:56:12.233Z,4.70
2018-07-30T12:58:41.407Z,6.67
2018-07-30T13:01:10.649Z,5.13
2018-07-30T13:03:39.871Z,3.87
2018-07-30T13:06:09.316Z,9.50
2018-07-30T13:08:38.317Z,4.73
2018-07-30T13:11:07.319Z,5.93
2018-07-30T13:13:36.185Z,3.90
2018-07-30T13:16:04.713Z,4.60
2018-07-30T13:18:33.998Z,4.00
2018-07-30T13:21:03.321Z,6.10
2018-07-30T13:23:32.524Z,3.97
2018-07-30T13:26:01.513Z,4.13
2018-07-30T13:28:30.784Z,3.73
2018-07-30T13:31:00.000Z,4.57
2018-07-30T13:33:28.983Z,3.13
2018-07-30T13:35:58.052Z,3.93
2018-07-30T13:38:27.222Z,6.47
2018-07-30T13:40:56.496Z,6.33
2018-07-30T13:43:25.708Z,9.17
2018-07-30T13:45:54.716Z,3.93
2018-07-30T13:48:23.989Z,4.57
2018-07-30T13:50:53.458Z,4.87
2018-07-30T13:53:22.659Z,5.37
2018-07-30T13:55:51.612Z,4.97
2018-07-30T13:58:20.637Z,4.73
2018-07-30T14:00:49.717Z,4.57
2018-07-30T14:03:18.700Z,5.80
2018-07-30T14:05:47.775Z,4.00
2018-07-30T14:08:16.764Z,4.47
2018-07-30T14:10:45.775Z,4.30
2018-07-30T14:13:14.233Z,4.77
2018-07-30T14:15:43.263Z,4.97
2018-07-30T14:18:12.482Z,5.43
2018-07-30T14:20:41.767Z,3.73
2018-07-30T14:23:11.323Z,3.67
2018-07-30T14:25:40.380Z,16.63
2018-07-30T14:28:09.431Z,9.30
2018-07-30T14:30:38.452Z,6.83
2018-07-30T14:33:07.673Z,9.00
2018-07-30T14:35:37.004Z,7.27
2018-07-30T14:38:05.462Z,5.77
2018-07-30T14:40:34.756Z,4.00
2018-07-30T14:43:03.988Z,4.43
2018-07-30T14:45:33.091Z,3.80
2018-07-30T14:48:02.240Z,4.63
2018-07-30T14:50:31.476Z,5.87
2018-07-30T14:53:00.685Z,5.13
2018-07-30T14:55:29.739Z,7.40
2018-07-30T14:57:58.955Z,4.83
2018-07-30T15:00:28.169Z,4.37
2018-07-30T15:02:57.400Z,3.90
2018-07-30T15:05:26.423Z,6.27
2018-07-30T15:07:55.484Z,5.53
2018-07-30T15:10:24.678Z,4.00
2018-07-30T15:12:53.909Z,3.80
2018-07-30T15:15:23.125Z,4.27
2018-07-30T15:17:52.356Z,4.27
2018-07-30T15:20:21.363Z,3.90
2018-07-30T15:22:50.395Z,4.23
2018-07-30T15:25:19.635Z,5.97
2018-07-30T15:27:48.716Z,4.37
2018-07-30T15:30:17.895Z,4.00
2018-07-30T15:32:46.928Z,3.60
2018-07-30T15:35:15.940Z,4.13
2018-07-30T15:37:45.208Z,3.77
2018-07-30T15:40:14.416Z,5.57
2018-07-30T15:42:43.315Z,6.80
2018-07-30T15:45:12.477Z,5.13
2018-07-30T15:47:41.704Z,5.93
2018-07-30T15:50:10.709Z,3.70
2018-07-30T15:52:39.952Z,5.17
2018-07-30T15:55:08.538Z,3.87
2018-07-30T15:57:37.000Z,3.90
2018-07-30T16:00:06.664Z,7.17
2018-07-30T16:02:35.244Z,3.83
2018-07-30T16:05:03.888Z,6.03
2018-07-30T16:07:32.402Z,4.43
2018-07-30T16:12:29.433Z,4.03
2018-07-30T16:14:58.098Z,4.67
2018-07-30T16:17:26.671Z,6.67
2018-07-30T16:19:55.183Z,7.27
2018-07-30T16:22:23.699Z,4.00
2018-07-30T16:24:53.191Z,3.23
2018-07-30T16:27:22.425Z,3.27
2018-07-30T16:29:51.660Z,4.73
2018-07-30T16:32:20.901Z,4.67
2018-07-30T16:34:50.105Z,3.90
2018-07-30T16:37:19.319Z,6.80
2018-07-30T16:39:48.332Z,4.10
2018-07-30T16:42:17.358Z,3.43
2018-07-30T16:44:46.887Z,3.63
2018-07-30T16:47:16.272Z,4.10
2018-07-30T16:49:45.454Z,4.63
2018-07-30T16:52:14.690Z,6.00
2018-07-30T16:54:43.920Z,3.90
2018-07-30T16:57:13.151Z,3.87
2018-07-30T16:59:42.164Z,5.50
2018-07-30T17:02:11.412Z,7.50
2018-07-30T17:04:40.551Z,4.03
2018-07-30T17:07:09.627Z,3.70
2018-07-30T17:09:38.662Z,4.07
2018-07-30T17:12:07.870Z,5.13
2018-07-30T17:14:37.135Z,4.63
2018-07-30T17:17:06.124Z,3.87
2018-07-30T17:19:35.342Z,6.30
2018-07-30T17:22:04.632Z,3.43
2018-07-30T17:24:33.829Z,5.00
2018-07-30T17:27:02.838Z,4.73
2018-07-30T17:29:32.091Z,3.93
2018-07-30T17:32:01.317Z,4.47
2018-07-30T17:34:30.556Z,3.87
2018-07-30T17:36:59.843Z,4.00
2018-07-30T17:39:29.001Z,3.87
2018-07-30T17:41:57.507Z,4.90
2018-07-30T17:44:26.040Z,4.50
2018-07-30T17:46:55.327Z,4.57
2018-07-30T17:49:24.276Z,5.37
2018-07-30T17:51:53.563Z,4.57
2018-07-30T17:54:22.781Z,4.47
2018-07-30T17:56:52.008Z,4.83
2018-07-30T17:59:20.995Z,5.23
2018-07-30T18:01:50.005Z,5.53
2018-07-30T18:04:19.136Z,4.97
2018-07-30T18:06:48.376Z,7.20
2018-07-30T18:09:17.613Z,8.07
2018-07-30T18:11:46.762Z,8.30
2018-07-30T18:14:15.995Z,4.30
2018-07-30T18:16:45.000Z,4.83
2018-07-30T18:19:13.568Z,5.57
2018-07-30T18:21:42.871Z,4.53
2018-07-30T18:24:12.128Z,3.80
2018-07-30T18:26:41.319Z,4.57
2018-07-30T18:29:10.567Z,3.60
2018-07-30T18:31:39.605Z,4.80
2018-07-30T18:34:08.583Z,6.73
2018-07-30T18:36:37.657Z,4.80
2018-07-30T18:39:07.063Z,6.70
2018-07-30T18:41:36.459Z,4.50
2018-07-30T18:44:04.994Z,7.27
2018-07-30T18:46:34.177Z,5.53
2018-07-30T18:49:03.404Z,5.23
2018-07-30T18:51:32.605Z,6.43
2018-07-30T18:54:01.168Z,4.17
2018-07-30T18:56:30.494Z,4.03
2018-07-30T18:58:59.707Z,6.20
2018-07-30T19:01:28.554Z,5.27
2018-07-30T19:03:57.735Z,4.73
2018-07-30T19:06:26.992Z,4.57
2018-07-30T19:08:55.496Z,4.37
2018-07-30T19:11:24.644Z,4.47
2018-07-30T19:13:53.920Z,5.83
2018-07-30T19:16:23.135Z,5.90
2018-07-30T19:18:52.706Z,5.63
2018-07-30T19:21:21.964Z,3.97
2018-07-30T19:23:50.988Z,5.17
2018-07-30T19:26:20.192Z,4.27
2018-07-30T19:28:49.428Z,6.87
2018-07-30T19:31:18.676Z,5.27
2018-07-30T19:33:47.982Z,9.33
2018-07-30T19:36:17.286Z,6.00
2018-07-30T19:38:45.802Z,4.53
2018-07-30T19:41:14.326Z,15.27
2018-07-30T19:43:43.194Z,33.43
2018-07-30T19:46:12.488Z,15.57
2018-07-30T19:48:41.040Z,11.43
2018-07-30T19:51:09.572Z,5.63
2018-07-30T19:53:38.739Z,14.60
2018-07-30T19:56:07.964Z,9.40
2018-07-30T19:58:36.698Z,10.90
2018-07-30T20:01:05.665Z,6.90
2018-07-30T20:03:34.711Z,6.13
2018-07-30T20:06:03.991Z,8.40
2018-07-30T20:08:33.308Z,7.73
2018-07-30T20:11:02.528Z,6.70
2018-07-30T20:13:31.045Z,8.00
2018-07-30T20:15:59.980Z,4.23
2018-07-30T20:18:29.514Z,4.57
2018-07-30T20:20:58.660Z,5.97
2018-07-30T20:23:28.330Z,10.10
2018-07-30T20:25:57.497Z,9.00
2018-07-30T20:28:27.180Z,5.90
2018-07-30T20:30:56.412Z,5.10
2018-07-30T20:33:25.784Z,6.07
2018-07-30T20:35:55.200Z,5.00
2018-07-30T20:38:24.428Z,6.00
2018-07-30T20:40:53.632Z,7.63
2018-07-30T20:43:22.672Z,9.13
2018-07-30T20:45:51.648Z,9.17
2018-07-30T20:48:20.684Z,4.53
2018-07-30T20:50:50.187Z,5.33
2018-07-30T20:53:19.361Z,6.10
2018-07-30T20:55:48.615Z,5.03
2018-07-30T20:58:17.817Z,6.73
2018-07-30T21:00:47.040Z,4.70
2018-07-30T21:03:16.031Z,5.00
2018-07-30T21:05:45.298Z,5.20
2018-07-30T21:08:15.840Z,7.10
2018-07-30T21:10:45.780Z,5.53
2018-07-30T21:13:15.774Z,6.23
2018-07-30T21:15:44.363Z,4.40
2018-07-30T21:18:13.400Z,4.03
2018-07-30T21:20:42.652Z,3.87
2018-07-30T21:23:11.960Z,6.03
2018-07-30T21:25:40.537Z,7.47
2018-07-30T21:28:09.064Z,8.83
2018-07-30T21:30:37.593Z,6.77
2018-07-30T21:33:07.141Z,9.83
2018-07-30T21:35:35.799Z,5.47
2018-07-30T21:38:04.717Z,7.00
2018-07-30T21:40:33.283Z,6.03
2018-07-30T21:43:01.889Z,3.83
2018-07-30T21:45:30.423Z,4.63
2018-07-30T21:47:58.965Z,5.97
2018-07-30T21:50:28.286Z,4.83
2018-07-30T21:52:56.823Z,5.30
2018-07-30T21:55:25.395Z,6.83
2018-07-30T21:57:53.956Z,5.83
2018-07-30T22:00:23.315Z,5.53
2018-07-30T22:02:52.895Z,6.43
2018-07-30T22:05:21.507Z,9.97
2018-07-30T22:07:50.033Z,4.87
2018-07-30T22:10:18.722Z,5.37
2018-07-30T22:12:47.758Z,4.63
2018-07-30T22:15:16.282Z,4.50
2018-07-30T22:17:44.816Z,7.87
2018-07-30T22:20:13.326Z,5.27
2018-07-30T22:22:42.642Z,7.37
2018-07-30T22:25:11.900Z,5.70
2018-07-30T22:27:41.410Z,5.23
2018-07-30T22:30:10.667Z,6.23
2018-07-30T22:32:39.344Z,4.50
2018-07-30T22:35:08.819Z,7.27
2018-07-30T22:37:37.366Z,5.60
2018-07-30T22:40:06.612Z,5.83
2018-07-30T22:42:35.442Z,5.53
2018-07-30T22:45:04.047Z,5.67
2018-07-30T22:47:32.633Z,4.50
2018-07-30T22:50:01.154Z,6.40
2018-07-30T22:52:29.751Z,4.93
2018-07-30T22:54:58.313Z,6.00
2018-07-30T22:57:26.912Z,8.67
2018-07-30T22:59:55.484Z,6.50
2018-07-30T23:02:24.000Z,7.47
2018-07-30T23:04:52.553Z,5.60
2018-07-30T23:07:21.084Z,8.80
2018-07-30T23:09:49.612Z,6.47
2018-07-30T23:12:18.163Z,8.57
2018-07-30T23:14:46.679Z,5.53
2018-07-30T23:17:15.226Z,7.30
2018-07-30T23:19:44.439Z,5.63
2018-07-30T23:22:13.664Z,18.43
2018-07-30T23:24:42.656Z,7.67
2018-07-30T23:27:11.922Z,6.63
2018-07-30T23:29:41.135Z,4.50
2018-07-30T23:32:10.395Z,6.03
2018-07-30T23:34:39.742Z,8.00
2018-07-30T23:37:09.071Z,29.43
2018-07-30T23:39:38.215Z,31.17
2018-07-30T23:42:07.381Z,20.03
2018-07-30T23:44:37.472Z,18.33
2018-07-30T23:47:06.018Z,27.13
2018-07-30T23:49:34.543Z,36.53
2018-07-30T23:52:03.091Z,44.43
2018-07-30T23:54:31.639Z,43.13
2018-07-30T23:57:00.178Z,41.10
2018-07-30T23:59:29.501Z,30.97
